Time;durP1;ratioP1;P1;durP2;ratioP2;P2;SDS_P1;SDS_P2;PMS_P1;PMS_P2;Temp;Humidity;BMP_temperature;BMP_pressure;BME280_temperature;BME280_humidity;BME280_pressure;Samples;Min_cycle;Max_cycle;Signal;HPM_P1;HPM_P2
2023/12/04 00:01:31;;;;;;;42.33;24.63;;;0.90;99.90;;;;;;4977572;28;20493;-81
2023/12/04 00:03:58;;;;;;;42.05;25.40;;;0.70;99.90;;;;;;4982388;28;20037;-80
2023/12/04 00:06:24;;;;;;;43.28;26.95;;;0.80;99.90;;;;;;4998614;28;20536;-81
2023/12/04 00:08:49;;;;;;;40.85;25.58;;;0.90;99.90;;;;;;4982979;28;20122;-80
2023/12/04 00:11:15;;;;;;;39.63;25.38;;;0.80;99.90;;;;;;4976646;28;20125;-81
2023/12/04 00:13:41;;;;;;;43.40;26.60;;;0.70;99.90;;;;;;4984551;28;20070;-81
2023/12/04 00:16:07;;;;;;;41.88;25.75;;;0.90;99.90;;;;;;4985745;28;20041;-80
2023/12/04 00:18:33;;;;;;;43.42;26.23;;;0.70;99.90;;;;;;4981658;28;20045;-81
2023/12/04 00:20:59;;;;;;;42.40;26.40;;;0.70;99.90;;;;;;4984346;28;20400;-81
2023/12/04 00:23:25;;;;;;;42.45;26.92;;;0.90;99.90;;;;;;5000589;28;20045;-80
2023/12/04 00:25:50;;;;;;;45.00;26.48;;;0.90;99.90;;;;;;4973265;28;20053;-81
2023/12/04 00:28:16;;;;;;;46.13;27.38;;;0.80;99.90;;;;;;4994763;28;20046;-81
2023/12/04 00:30:42;;;;;;;44.17;27.40;;;0.90;99.90;;;;;;4980831;28;20045;-81
2023/12/04 00:33:08;;;;;;;42.80;27.35;;;0.80;99.90;;;;;;4976631;28;20038;-81
2023/12/04 00:35:33;;;;;;;46.08;28.08;;;0.90;99.90;;;;;;4988040;28;20328;-80
2023/12/04 00:37:59;;;;;;;43.33;28.25;;;0.90;99.90;;;;;;4992462;28;20044;-80
2023/12/04 00:40:25;;;;;;;45.80;28.10;;;0.70;99.90;;;;;;4985291;28;20049;-81
2023/12/04 00:42:51;;;;;;;49.25;28.33;;;0.90;99.90;;;;;;5013513;28;20062;-80
2023/12/04 00:45:20;;;;;;;45.05;28.17;;;0.90;99.90;;;;;;4978771;28;20050;-81
2023/12/04 00:47:45;;;;;;;46.08;27.63;;;0.70;99.90;;;;;;4989504;28;20532;-81
2023/12/04 00:50:11;;;;;;;45.13;28.80;;;0.80;99.90;;;;;;4975572;28;20046;-81
2023/12/04 00:52:37;;;;;;;43.50;27.30;;;0.80;99.90;;;;;;4986268;28;20468;-80
2023/12/04 00:55:03;;;;;;;44.35;27.50;;;0.90;99.90;;;;;;4988585;28;20184;-80
2023/12/04 00:57:29;;;;;;;46.38;27.75;;;1.00;99.90;;;;;;4963946;28;20043;-81
2023/12/04 00:59:54;;;;;;;45.72;27.83;;;0.70;99.90;;;;;;4998007;28;20046;-81
2023/12/04 01:02:20;;;;;;;43.60;26.80;;;0.80;99.90;;;;;;4998692;28;20149;-80
2023/12/04 01:04:46;;;;;;;46.20;27.25;;;1.00;99.90;;;;;;4981389;28;20547;-80
2023/12/04 01:07:11;;;;;;;43.72;26.98;;;0.90;99.90;;;;;;4997411;28;20054;-80
2023/12/04 01:09:37;;;;;;;45.33;26.05;;;0.80;99.90;;;;;;4981610;28;20038;-80
2023/12/04 01:12:04;;;;;;;42.78;27.23;;;0.80;99.90;;;;;;4983742;28;20097;-81
2023/12/04 01:14:30;;;;;;;44.33;27.10;;;0.70;99.90;;;;;;4985159;28;20104;-80
2023/12/04 01:16:56;;;;;;;44.00;26.63;;;0.80;99.90;;;;;;4981173;28;20073;-81
2023/12/04 01:19:22;;;;;;;44.75;27.38;;;0.70;99.90;;;;;;4972044;28;20515;-81
2023/12/04 01:21:47;;;;;;;40.92;25.65;;;1.00;99.90;;;;;;4978680;28;20221;-81
2023/12/04 01:24:14;;;;;;;43.92;26.67;;;0.70;99.90;;;;;;4985304;28;20497;-80
2023/12/04 01:26:43;;;;;;;42.05;26.25;;;1.00;99.90;;;;;;4959458;28;20050;-80
2023/12/04 01:29:09;;;;;;;38.17;24.88;;;0.90;99.90;;;;;;4983933;28;20042;-81
2023/12/04 01:31:34;;;;;;;40.45;25.77;;;1.00;99.90;;;;;;5018042;28;20145;-80
2023/12/04 01:34:01;;;;;;;42.45;26.05;;;0.70;99.90;;;;;;4983309;28;20037;-80
2023/12/04 01:36:27;;;;;;;43.30;26.25;;;0.80;99.90;;;;;;4995329;28;20054;-81
2023/12/04 01:38:52;;;;;;;42.53;25.88;;;0.90;99.90;;;;;;4997452;28;20042;-81
2023/12/04 01:41:18;;;;;;;40.15;25.48;;;1.00;99.90;;;;;;4979520;28;20152;-81
2023/12/04 01:43:44;;;;;;;42.90;26.67;;;0.80;99.90;;;;;;4994675;28;20122;-81
2023/12/04 01:46:10;;;;;;;39.90;25.90;;;0.80;99.90;;;;;;4976229;28;20046;-81
2023/12/04 01:48:37;;;;;;;42.25;27.02;;;1.00;99.90;;;;;;4998984;28;20298;-80
2023/12/04 01:51:07;;;;;;;43.28;25.05;;;0.80;99.90;;;;;;4976275;28;20492;-81
2023/12/04 01:53:36;;;;;;;41.92;25.48;;;0.90;99.90;;;;;;4992546;28;20042;-81
2023/12/04 01:56:02;;;;;;;40.65;25.60;;;1.00;99.90;;;;;;4974660;28;20046;-80
2023/12/04 01:58:27;;;;;;;40.40;24.95;;;0.80;99.90;;;;;;4978203;28;20519;-80
2023/12/04 02:00:53;;;;;;;42.72;25.58;;;0.80;99.90;;;;;;4991936;28;20147;-80
2023/12/04 02:03:19;;;;;;;41.85;25.98;;;0.80;99.90;;;;;;4979383;28;20038;-81
2023/12/04 02:05:44;;;;;;;43.80;26.20;;;1.10;99.90;;;;;;4973867;28;20038;-80
2023/12/04 02:08:10;;;;;;;41.00;25.00;;;0.80;99.90;;;;;;4977815;28;20030;-79
2023/12/04 02:10:37;;;;;;;42.55;26.13;;;1.10;99.90;;;;;;4980073;28;20409;-79
2023/12/04 02:13:03;;;;;;;39.15;24.30;;;0.80;99.90;;;;;;4994997;28;20387;-79
2023/12/04 02:15:29;;;;;;;39.45;23.83;;;0.80;99.90;;;;;;4974002;28;20033;-79
2023/12/04 02:17:55;;;;;;;44.08;25.70;;;0.80;99.90;;;;;;4986178;28;20528;-80
2023/12/04 02:20:20;;;;;;;37.38;23.92;;;0.90;99.90;;;;;;4990338;28;20045;-80
2023/12/04 02:22:46;;;;;;;36.70;22.80;;;1.10;99.90;;;;;;4977435;28;20050;-79
2023/12/04 02:25:12;;;;;;;41.00;24.27;;;1.10;99.90;;;;;;4965652;28;20042;-80
2023/12/04 02:27:44;;;;;;;40.25;24.17;;;0.80;99.90;;;;;;4976849;28;20038;-80
2023/12/04 02:30:12;;;;;;;39.75;25.25;;;1.10;99.90;;;;;;4970093;28;20066;-79
2023/12/04 02:32:44;;;;;;;38.13;24.60;;;0.80;99.90;;;;;;4960451;28;20405;-79
2023/12/04 02:35:11;;;;;;;37.67;23.25;;;1.10;99.90;;;;;;4980443;28;20033;-79
2023/12/04 02:37:38;;;;;;;40.60;24.13;;;0.80;99.90;;;;;;4958929;28;20043;-80
2023/12/04 02:40:06;;;;;;;37.33;23.63;;;1.10;99.90;;;;;;4974277;28;20046;-79
2023/12/04 02:42:32;;;;;;;40.92;25.45;;;0.90;99.90;;;;;;4973900;28;20064;-80
2023/12/04 02:44:58;;;;;;;41.15;24.75;;;0.90;99.90;;;;;;4977709;28;20085;-79
2023/12/04 02:47:24;;;;;;;40.53;23.20;;;0.90;99.90;;;;;;4974561;28;20085;-79
2023/12/04 02:49:50;;;;;;;40.22;23.80;;;0.90;99.90;;;;;;4978447;28;20034;-80
2023/12/04 02:52:15;;;;;;;40.88;24.42;;;0.90;99.90;;;;;;4975457;28;20068;-79
2023/12/04 02:54:41;;;;;;;39.53;23.45;;;1.00;99.90;;;;;;4996250;28;20045;-80
2023/12/04 02:57:07;;;;;;;36.97;23.13;;;1.00;99.90;;;;;;4978793;28;20398;-79
2023/12/04 02:59:32;;;;;;;41.97;24.75;;;1.20;99.90;;;;;;4992936;28;20113;-80
2023/12/04 03:01:58;;;;;;;42.25;25.45;;;1.00;99.90;;;;;;4976903;28;20362;-79
2023/12/04 03:04:24;;;;;;;38.47;23.42;;;1.00;99.90;;;;;;4973492;28;20579;-79
2023/12/04 03:06:50;;;;;;;40.95;24.95;;;1.10;99.90;;;;;;4970651;28;20398;-78
2023/12/04 03:09:15;;;;;;;40.45;24.67;;;1.00;99.90;;;;;;4991317;28;20049;-79
2023/12/04 03:11:41;;;;;;;40.10;24.80;;;1.00;99.90;;;;;;4969543;28;20489;-79
2023/12/04 03:14:08;;;;;;;39.47;24.65;;;1.30;99.90;;;;;;4982418;28;20053;-79
2023/12/04 03:16:34;;;;;;;38.47;23.48;;;1.00;99.90;;;;;;4991342;28;20050;-79
2023/12/04 03:19:00;;;;;;;40.67;24.23;;;0.90;99.90;;;;;;4982488;28;20042;-79
2023/12/04 03:21:25;;;;;;;38.92;24.05;;;1.20;99.90;;;;;;4978473;28;20045;-80
2023/12/04 03:23:51;;;;;;;41.63;24.02;;;1.00;99.90;;;;;;4991976;28;20042;-79
2023/12/04 03:26:17;;;;;;;39.20;24.15;;;1.10;99.90;;;;;;4980310;28;20050;-79
2023/12/04 03:28:43;;;;;;;38.67;23.80;;;1.30;99.90;;;;;;4957512;28;20076;-79
2023/12/04 03:31:09;;;;;;;40.15;23.20;;;1.30;99.90;;;;;;4995045;28;20038;-80
2023/12/04 03:33:35;;;;;;;40.70;24.15;;;1.00;99.90;;;;;;4993237;28;20081;-79
2023/12/04 03:36:00;;;;;;;37.95;24.05;;;1.10;99.90;;;;;;4987509;28;20042;-79
2023/12/04 03:38:26;;;;;;;40.92;23.80;;;1.20;99.90;;;;;;4976945;28;20054;-79
2023/12/04 03:40:52;;;;;;;38.80;23.92;;;1.00;99.90;;;;;;4967212;28;20081;-79
2023/12/04 03:43:18;;;;;;;39.67;24.75;;;1.30;99.90;;;;;;4974958;28;20050;-80
2023/12/04 03:45:44;;;;;;;40.70;24.67;;;1.20;99.90;;;;;;4977822;28;20053;-79
2023/12/04 03:48:09;;;;;;;39.95;23.17;;;1.30;99.90;;;;;;4980948;28;20483;-79
2023/12/04 03:50:35;;;;;;;40.17;24.17;;;1.10;99.90;;;;;;4974704;28;20049;-80
2023/12/04 03:53:01;;;;;;;38.45;24.15;;;1.40;99.90;;;;;;4979969;28;20053;-79
2023/12/04 03:55:26;;;;;;;38.83;23.85;;;1.10;99.90;;;;;;4957104;28;20061;-79
2023/12/04 03:57:53;;;;;;;39.63;22.92;;;1.10;99.90;;;;;;4991427;28;20521;-79
2023/12/04 04:00:19;;;;;;;40.08;23.17;;;1.10;99.90;;;;;;4992403;28;20077;-79
2023/12/04 04:02:45;;;;;;;38.50;22.85;;;1.30;99.90;;;;;;4910579;28;20564;-79
2023/12/04 04:05:10;;;;;;;39.53;24.10;;;1.10;99.90;;;;;;4980805;28;20042;-79
2023/12/04 04:07:36;;;;;;;40.42;23.50;;;1.20;99.90;;;;;;4987803;28;20066;-80
2023/12/04 04:10:04;;;;;;;39.92;23.52;;;1.20;99.90;;;;;;4960679;28;20034;-80
2023/12/04 04:12:30;;;;;;;39.45;23.17;;;1.40;99.90;;;;;;4960072;28;20045;-80
2023/12/04 04:14:56;;;;;;;38.95;23.25;;;1.30;99.90;;;;;;4972344;28;20858;-80
2023/12/04 04:17:25;;;;;;;36.33;22.52;;;1.40;99.90;;;;;;4976590;28;20045;-80
2023/12/04 04:19:51;;;;;;;39.28;23.23;;;1.20;99.90;;;;;;4994658;28;20441;-80
2023/12/04 04:22:16;;;;;;;39.47;23.85;;;1.30;99.90;;;;;;4975555;28;20161;-80
2023/12/04 04:24:42;;;;;;;40.22;23.05;;;1.40;99.90;;;;;;4976342;28;20109;-79
2023/12/04 04:27:08;;;;;;;35.65;22.58;;;1.40;99.90;;;;;;4995577;28;20149;-79
2023/12/04 04:29:34;;;;;;;34.67;22.63;;;1.40;99.90;;;;;;4980853;28;20046;-80
2023/12/04 04:32:00;;;;;;;36.55;22.48;;;1.20;99.90;;;;;;4966670;28;20029;-80
2023/12/04 04:34:25;;;;;;;36.55;22.40;;;1.30;99.90;;;;;;4977160;28;20421;-80
2023/12/04 04:36:51;;;;;;;37.92;23.30;;;1.40;99.90;;;;;;4978532;28;20483;-80
2023/12/04 04:39:17;;;;;;;37.45;22.67;;;1.40;99.90;;;;;;4979738;28;20128;-80
2023/12/04 04:41:44;;;;;;;37.30;22.70;;;1.20;99.90;;;;;;4975655;28;20054;-79
2023/12/04 04:44:09;;;;;;;35.30;22.17;;;1.30;99.90;;;;;;4976069;28;20065;-79
2023/12/04 04:46:35;;;;;;;36.13;22.48;;;1.20;99.90;;;;;;4973239;28;20044;-79
2023/12/04 04:49:01;;;;;;;36.28;22.58;;;1.50;99.90;;;;;;4980820;28;20034;-79
2023/12/04 04:51:29;;;;;;;35.25;22.00;;;1.20;99.90;;;;;;4994328;28;20029;-80
2023/12/04 04:53:55;;;;;;;35.78;22.17;;;1.50;99.90;;;;;;4977669;28;20117;-80
2023/12/04 04:56:21;;;;;;;37.70;22.08;;;1.30;99.90;;;;;;4965269;28;20042;-80
2023/12/04 04:58:47;;;;;;;36.80;22.13;;;1.20;99.90;;;;;;4988525;28;20030;-79
2023/12/04 05:01:12;;;;;;;36.25;22.58;;;1.40;99.90;;;;;;4981837;28;20484;-80
2023/12/04 05:03:38;;;;;;;36.30;22.13;;;1.40;99.90;;;;;;4957382;28;20068;-80
2023/12/04 05:06:04;;;;;;;35.60;21.90;;;1.20;99.90;;;;;;4991518;28;20045;-80
2023/12/04 05:08:30;;;;;;;33.35;21.23;;;1.20;99.90;;;;;;4961103;28;20481;-79
2023/12/04 05:10:55;;;;;;;37.75;22.50;;;1.30;99.90;;;;;;4982052;28;20132;-80
2023/12/04 05:13:21;;;;;;;36.25;21.52;;;1.30;99.90;;;;;;4974316;28;20045;-80
2023/12/04 05:15:46;;;;;;;34.65;20.90;;;1.30;99.90;;;;;;4990290;28;20068;-80
2023/12/04 05:18:12;;;;;;;33.85;21.08;;;1.30;99.90;;;;;;4980495;28;20049;-80
2023/12/04 05:20:38;;;;;;;33.90;21.52;;;1.10;99.90;;;;;;4959670;28;20657;-80
2023/12/04 05:23:04;;;;;;;33.30;21.35;;;1.30;99.90;;;;;;4997402;28;20042;-79
2023/12/04 05:25:29;;;;;;;32.33;20.90;;;1.40;99.90;;;;;;4974184;28;20048;-80
2023/12/04 05:27:55;;;;;;;36.88;21.90;;;1.30;99.90;;;;;;4981132;28;20519;-79
2023/12/04 05:30:21;;;;;;;34.40;21.10;;;1.30;99.90;;;;;;4980402;28;20662;-80
2023/12/04 05:32:46;;;;;;;32.67;20.90;;;1.10;99.90;;;;;;4971112;28;20053;-80
2023/12/04 05:35:12;;;;;;;32.75;20.08;;;1.20;99.90;;;;;;4984567;28;20030;-79
2023/12/04 05:37:38;;;;;;;34.58;21.02;;;1.10;99.90;;;;;;4974954;28;20077;-80
2023/12/04 05:40:04;;;;;;;35.10;21.50;;;1.30;99.90;;;;;;4981672;28;20048;-79
2023/12/04 05:42:30;;;;;;;32.90;20.30;;;1.10;99.90;;;;;;4956317;28;20088;-79
2023/12/04 05:44:57;;;;;;;33.25;20.90;;;1.20;99.90;;;;;;4961478;28;20039;-79
2023/12/04 05:47:23;;;;;;;31.20;20.52;;;1.30;99.90;;;;;;4976520;28;20046;-80
2023/12/04 05:49:48;;;;;;;33.92;21.25;;;1.20;99.90;;;;;;4967436;28;20047;-79
2023/12/04 05:52:14;;;;;;;33.17;21.05;;;1.20;99.90;;;;;;4946582;28;20481;-80
2023/12/04 05:54:40;;;;;;;33.10;19.92;;;1.20;99.90;;;;;;4962295;28;20042;-80
2023/12/04 05:57:05;;;;;;;31.35;20.27;;;1.30;99.90;;;;;;4972132;28;20501;-80
2023/12/04 05:59:31;;;;;;;29.40;19.67;;;1.30;99.90;;;;;;4952400;28;20134;-79
2023/12/04 06:01:57;;;;;;;30.48;20.75;;;1.10;99.90;;;;;;4945486;28;20042;-79
2023/12/04 06:04:22;;;;;;;36.00;21.05;;;1.30;99.90;;;;;;4955165;28;20473;-80
2023/12/04 06:06:48;;;;;;;29.00;19.95;;;1.10;99.90;;;;;;4957702;28;20071;-79
2023/12/04 06:09:16;;;;;;;34.63;20.35;;;1.20;99.90;;;;;;4959675;28;20473;-79
2023/12/04 06:11:42;;;;;;;31.30;20.48;;;1.30;99.90;;;;;;4955146;28;20058;-80
2023/12/04 06:14:08;;;;;;;35.28;19.73;;;1.30;99.90;;;;;;4978805;28;20557;-80
2023/12/04 06:16:33;;;;;;;33.33;20.85;;;1.20;99.90;;;;;;4958743;28;20045;-80
2023/12/04 06:18:59;;;;;;;31.60;19.55;;;1.10;99.90;;;;;;4943571;28;20046;-79
2023/12/04 06:21:25;;;;;;;30.85;20.25;;;1.10;99.90;;;;;;4962180;28;20178;-80
2023/12/04 06:23:51;;;;;;;32.05;19.92;;;1.10;99.90;;;;;;4945565;28;20161;-80
2023/12/04 06:26:17;;;;;;;32.13;19.30;;;1.30;99.90;;;;;;4942510;28;20497;-79
2023/12/04 06:28:44;;;;;;;32.95;20.52;;;1.30;99.90;;;;;;4951991;28;20045;-79
2023/12/04 06:31:10;;;;;;;28.70;19.27;;;1.10;99.90;;;;;;4970741;28;20042;-80
2023/12/04 06:33:38;;;;;;;29.80;19.42;;;1.20;99.90;;;;;;4955488;28;20069;-79
2023/12/04 06:36:06;;;;;;;33.05;20.20;;;1.10;99.90;;;;;;4961382;28;20069;-80
2023/12/04 06:38:35;;;;;;;30.83;20.33;;;1.10;99.90;;;;;;4965476;28;20054;-80
2023/12/04 06:41:02;;;;;;;33.08;20.92;;;1.30;99.90;;;;;;4943734;28;20058;-79
2023/12/04 06:43:28;;;;;;;34.78;20.00;;;1.20;99.90;;;;;;4972322;28;20050;-80
2023/12/04 06:45:56;;;;;;;31.35;19.83;;;1.10;99.90;;;;;;4988913;28;20056;-79
2023/12/04 06:48:22;;;;;;;32.53;20.35;;;1.20;99.90;;;;;;4974136;28;20236;-80
2023/12/04 06:50:48;;;;;;;29.83;19.65;;;1.20;99.90;;;;;;4973825;28;20060;-80
2023/12/04 06:53:14;;;;;;;30.00;19.65;;;1.20;99.90;;;;;;4978635;28;20045;-79
2023/12/04 06:55:40;;;;;;;28.90;19.52;;;1.10;99.90;;;;;;4978412;28;20038;-79
2023/12/04 06:58:05;;;;;;;29.52;18.98;;;1.10;99.90;;;;;;4994075;28;20038;-80
2023/12/04 07:00:31;;;;;;;32.78;19.50;;;0.90;99.90;;;;;;4958076;28;20050;-80
2023/12/04 07:02:57;;;;;;;32.60;20.35;;;1.10;99.90;;;;;;4979261;28;20073;-79
2023/12/04 07:05:22;;;;;;;33.00;20.15;;;0.90;99.90;;;;;;4977542;28;20045;-79
2023/12/04 07:07:48;;;;;;;28.13;18.17;;;1.10;99.90;;;;;;4995170;28;20125;-80
2023/12/04 07:10:14;;;;;;;30.42;19.33;;;1.00;99.90;;;;;;4990458;28;20034;-79
2023/12/04 07:12:42;;;;;;;29.70;17.80;;;0.90;99.90;;;;;;4966966;28;20073;-80
2023/12/04 07:15:09;;;;;;;28.50;17.70;;;0.90;99.90;;;;;;4981734;28;20113;-79
2023/12/04 07:17:39;;;;;;;30.17;18.30;;;1.00;99.90;;;;;;4973388;28;20038;-79
2023/12/04 07:20:20;;;;;;;27.48;18.17;;;0.80;99.90;;;;;;4976702;28;20323;-80
2023/12/04 07:22:46;;;;;;;28.00;18.33;;;0.90;99.90;;;;;;4977479;28;20054;-80
2023/12/04 07:25:12;;;;;;;31.35;18.60;;;0.90;99.90;;;;;;4991630;28;20040;-80
2023/12/04 07:27:37;;;;;;;25.25;16.70;;;0.80;99.90;;;;;;4976250;28;20698;-80
2023/12/04 07:30:03;;;;;;;25.75;17.00;;;1.00;99.90;;;;;;4968834;28;20065;-79
2023/12/04 07:32:29;;;;;;;26.88;17.95;;;0.90;99.90;;;;;;5013176;28;20282;-80
2023/12/04 07:34:55;;;;;;;28.05;18.20;;;0.80;99.90;;;;;;4981224;28;20514;-80
2023/12/04 07:37:20;;;;;;;25.38;17.38;;;0.80;99.90;;;;;;4975593;28;20038;-79
2023/12/04 07:39:46;;;;;;;30.27;17.65;;;0.80;99.90;;;;;;4973590;28;20064;-80
2023/12/04 07:42:12;;;;;;;28.60;17.40;;;1.00;99.90;;;;;;4993871;28;20057;-80
2023/12/04 07:44:38;;;;;;;27.20;17.45;;;0.80;99.90;;;;;;4990981;28;20429;-80
2023/12/04 07:47:07;;;;;;;29.48;17.42;;;1.00;99.90;;;;;;4977343;28;20112;-79
2023/12/04 07:49:32;;;;;;;27.55;16.65;;;0.90;99.90;;;;;;4978249;28;20563;-80
2023/12/04 07:51:58;;;;;;;26.33;16.63;;;1.00;99.90;;;;;;4974414;28;20034;-80
2023/12/04 07:54:26;;;;;;;25.08;16.52;;;1.10;99.90;;;;;;4957106;28;20444;-79
2023/12/04 07:56:53;;;;;;;26.27;17.05;;;0.90;99.90;;;;;;4979839;28;20038;-79
2023/12/04 07:59:18;;;;;;;26.13;16.52;;;1.10;99.90;;;;;;4978161;28;20037;-79
2023/12/04 08:01:44;;;;;;;24.10;15.93;;;1.10;99.90;;;;;;4970426;28;20070;-79
2023/12/04 08:04:10;;;;;;;25.33;15.18;;;1.00;99.90;;;;;;4976534;28;20461;-79
2023/12/04 08:06:39;;;;;;;25.00;15.88;;;1.20;99.90;;;;;;4969355;28;20119;-79
2023/12/04 08:09:09;;;;;;;24.13;15.15;;;1.10;99.90;;;;;;4961392;28;20129;-80
2023/12/04 08:11:34;;;;;;;22.73;14.20;;;1.10;99.90;;;;;;4974979;28;20374;-80
2023/12/04 08:14:00;;;;;;;22.77;15.30;;;1.20;99.90;;;;;;4973682;28;20036;-79
2023/12/04 08:16:28;;;;;;;24.25;15.00;;;1.20;99.90;;;;;;4987943;28;20145;-80
2023/12/04 08:18:54;;;;;;;23.60;15.32;;;1.20;99.90;;;;;;4972982;28;20352;-79
2023/12/04 08:21:20;;;;;;;23.38;15.07;;;1.30;99.90;;;;;;4974419;28;20502;-80
2023/12/04 08:23:46;;;;;;;22.02;14.93;;;1.20;99.90;;;;;;4969710;28;20042;-79
2023/12/04 08:26:11;;;;;;;21.63;14.27;;;1.30;99.90;;;;;;4986085;28;20044;-79
2023/12/04 08:28:41;;;;;;;22.20;15.32;;;1.30;99.90;;;;;;4969157;28;20404;-79
2023/12/04 08:31:08;;;;;;;22.45;14.60;;;1.30;99.90;;;;;;4977476;28;20519;-79
2023/12/04 08:33:37;;;;;;;21.77;14.80;;;1.30;99.90;;;;;;4985176;28;20148;-79
2023/12/04 08:36:03;;;;;;;22.05;14.80;;;1.30;99.90;;;;;;4999667;28;20048;-79
2023/12/04 08:38:29;;;;;;;21.83;13.60;;;1.30;99.90;;;;;;4980423;28;20053;-79
2023/12/04 08:40:54;;;;;;;21.88;14.57;;;1.40;99.90;;;;;;4967408;28;20086;-79
2023/12/04 08:43:20;;;;;;;21.40;14.18;;;1.40;99.90;;;;;;4975846;28;20356;-80
2023/12/04 08:45:46;;;;;;;21.52;14.10;;;1.40;99.90;;;;;;4971376;28;20415;-80
2023/12/04 08:48:12;;;;;;;21.20;14.20;;;1.40;99.90;;;;;;4973834;28;20042;-79
2023/12/04 08:50:38;;;;;;;19.63;13.32;;;1.50;99.90;;;;;;4989821;28;20121;-87
2023/12/04 08:53:04;;;;;;;20.15;13.45;;;1.40;99.90;;;;;;4993677;28;20046;-86
2023/12/04 08:55:30;;;;;;;17.98;12.65;;;1.40;99.90;;;;;;4974203;28;20042;-86
2023/12/04 08:57:56;;;;;;;19.63;13.13;;;1.50;99.90;;;;;;4966492;28;20273;-86
2023/12/04 09:00:21;;;;;;;20.92;13.35;;;1.40;99.90;;;;;;4975520;28;20100;-87
2023/12/04 09:02:48;;;;;;;20.95;13.77;;;1.40;99.90;;;;;;4968254;28;20046;-87
2023/12/04 09:05:14;;;;;;;21.05;13.15;;;1.50;99.90;;;;;;4965418;28;20046;-85
2023/12/04 09:07:40;;;;;;;20.95;13.18;;;1.50;99.90;;;;;;4978641;28;20300;-87
2023/12/04 09:10:06;;;;;;;19.08;12.90;;;1.50;99.90;;;;;;4953512;28;20438;-87
2023/12/04 09:12:32;;;;;;;17.60;13.00;;;1.60;99.90;;;;;;4983003;28;20161;-87
2023/12/04 09:14:58;;;;;;;17.55;12.40;;;1.60;99.90;;;;;;4972757;28;20050;-87
2023/12/04 09:17:23;;;;;;;18.58;12.75;;;1.60;99.90;;;;;;4972490;28;20077;-87
2023/12/04 09:19:49;;;;;;;19.02;12.57;;;1.60;99.90;;;;;;4971296;28;20675;-87
2023/12/04 09:22:15;;;;;;;18.73;12.80;;;1.70;99.90;;;;;;4973067;28;20187;-86
2023/12/04 09:24:40;;;;;;;18.38;12.68;;;1.70;99.90;;;;;;4973237;28;20369;-87
2023/12/04 09:27:06;;;;;;;18.90;12.57;;;1.70;99.90;;;;;;4988626;28;20711;-87
2023/12/04 09:29:33;;;;;;;15.20;11.50;;;1.80;99.90;;;;;;4978555;28;20291;-87
2023/12/04 09:31:59;;;;;;;17.25;12.02;;;1.80;99.90;;;;;;4959834;28;20286;-87
2023/12/04 09:34:25;;;;;;;18.42;11.75;;;1.80;99.90;;;;;;4970814;28;20855;-87
2023/12/04 09:36:51;;;;;;;20.27;12.85;;;1.80;99.90;;;;;;4966901;28;20061;-86
2023/12/04 09:39:16;;;;;;;16.83;11.63;;;2.00;99.90;;;;;;4974930;28;20157;-87
2023/12/04 09:41:44;;;;;;;17.65;11.85;;;2.00;99.90;;;;;;4965360;28;20396;-88
2023/12/04 09:44:10;;;;;;;16.80;11.50;;;2.00;99.90;;;;;;4981034;28;20041;-87
2023/12/04 09:46:36;;;;;;;16.40;10.90;;;2.00;99.90;;;;;;4977357;28;20058;-87
2023/12/04 09:49:04;;;;;;;15.88;10.90;;;2.10;99.90;;;;;;4983492;28;20485;-87
2023/12/04 09:51:30;;;;;;;16.20;11.30;;;2.10;99.90;;;;;;5012142;28;20050;-87
2023/12/04 09:53:58;;;;;;;16.73;11.05;;;2.00;99.90;;;;;;4995278;28;20044;-87
2023/12/04 09:56:27;;;;;;;16.02;11.27;;;2.10;99.90;;;;;;4973669;28;20045;-87
2023/12/04 09:58:59;;;;;;;15.07;10.52;;;2.10;99.90;;;;;;4977309;28;20497;-86
2023/12/04 10:01:26;;;;;;;15.30;10.80;;;2.20;99.90;;;;;;4978039;28;20053;-87
2023/12/04 10:03:51;;;;;;;14.68;10.70;;;2.20;99.90;;;;;;4971782;28;20069;-87
2023/12/04 10:06:17;;;;;;;16.27;10.65;;;2.30;99.90;;;;;;4975948;28;20046;-86
2023/12/04 10:08:44;;;;;;;14.93;10.50;;;2.40;99.90;;;;;;4983377;28;20125;-87
2023/12/04 10:11:11;;;;;;;12.80;9.57;;;2.50;99.90;;;;;;4975117;28;20041;-87
2023/12/04 10:13:41;;;;;;;13.40;9.80;;;2.40;99.90;;;;;;4977375;28;20217;-86
2023/12/04 10:16:07;;;;;;;16.92;10.20;;;2.50;99.90;;;;;;4956608;28;20117;-87
2023/12/04 10:18:33;;;;;;;14.45;10.35;;;2.50;99.90;;;;;;4993790;28;20116;-87
2023/12/04 10:20:59;;;;;;;15.70;10.48;;;2.50;99.90;;;;;;4953546;28;20069;-87
2023/12/04 10:23:43;;;;;;;14.50;10.00;;;2.60;99.90;;;;;;4987108;28;20263;-87
2023/12/04 10:26:08;;;;;;;16.08;9.90;;;2.50;99.90;;;;;;4978819;28;20038;-87
2023/12/04 10:28:38;;;;;;;14.18;9.90;;;2.50;99.90;;;;;;4982361;28;20357;-87
2023/12/04 10:31:06;;;;;;;13.77;9.43;;;2.40;99.90;;;;;;4996289;28;20030;-85
2023/12/04 10:33:32;;;;;;;14.48;10.07;;;2.40;99.90;;;;;;4981324;28;20321;-87
2023/12/04 10:35:58;;;;;;;12.15;8.77;;;2.40;99.90;;;;;;4992719;28;20432;-87
2023/12/04 10:38:26;;;;;;;14.27;9.88;;;2.40;99.90;;;;;;4982516;28;20337;-87
2023/12/04 10:40:52;;;;;;;14.85;9.95;;;2.30;99.90;;;;;;4988529;28;20053;-87
2023/12/04 10:43:20;;;;;;;12.65;9.93;;;2.40;99.90;;;;;;4982444;28;20191;-87
2023/12/04 10:45:48;;;;;;;14.30;9.25;;;2.40;99.90;;;;;;4987105;28;20072;-87
2023/12/04 10:48:15;;;;;;;14.57;9.13;;;2.30;99.90;;;;;;4990158;28;20049;-87
2023/12/04 10:50:43;;;;;;;12.60;8.82;;;2.50;99.90;;;;;;4995145;28;20606;-87
2023/12/04 10:53:10;;;;;;;11.85;8.82;;;2.30;99.90;;;;;;4988231;28;20075;-87
2023/12/04 10:55:37;;;;;;;14.30;9.15;;;2.60;99.90;;;;;;4975649;28;20042;-86
2023/12/04 10:58:06;;;;;;;12.85;9.43;;;2.60;99.90;;;;;;4979804;28;20073;-87
2023/12/04 11:00:45;;;;;;;13.07;8.68;;;2.80;99.90;;;;;;4991842;28;20135;-87
2023/12/04 11:03:36;;;;;;;15.27;9.88;;;2.80;99.90;;;;;;4984488;28;20088;-88
2023/12/04 11:06:04;;;;;;;11.77;9.10;;;2.70;99.90;;;;;;4977481;28;20056;-86
2023/12/04 11:08:35;;;;;;;12.43;8.98;;;2.90;99.90;;;;;;4995800;28;20265;-88
2023/12/04 11:11:09;;;;;;;11.70;8.70;;;3.00;99.90;;;;;;4991503;28;20069;-88
2023/12/04 11:13:41;;;;;;;13.27;8.98;;;3.20;99.90;;;;;;4996840;28;20069;-88
2023/12/04 11:16:28;;;;;;;11.20;8.40;;;3.10;99.90;;;;;;4978761;28;20673;-86
2023/12/04 11:19:17;;;;;;;11.57;8.25;;;2.90;99.90;;;;;;4996632;28;20037;-87
2023/12/04 11:21:46;;;;;;;12.45;8.35;;;3.20;99.90;;;;;;4995506;28;20062;-87
2023/12/04 11:24:12;;;;;;;15.18;9.45;;;3.40;99.90;;;;;;4976582;28;20494;-88
2023/12/04 11:26:42;;;;;;;11.10;8.07;;;3.30;99.90;;;;;;4979372;28;20045;-87
2023/12/04 11:29:11;;;;;;;12.20;8.45;;;3.30;99.90;;;;;;4990408;28;20527;-87
2023/12/04 11:31:37;;;;;;;14.05;9.07;;;3.20;99.90;;;;;;4962321;28;20056;-88
2023/12/04 11:34:04;;;;;;;14.52;8.93;;;3.20;99.90;;;;;;4971148;28;20524;-88
2023/12/04 11:36:30;;;;;;;12.20;8.70;;;3.30;99.90;;;;;;4982045;28;20610;-87
2023/12/04 11:38:58;;;;;;;12.00;8.63;;;3.30;99.90;;;;;;4976119;28;20057;-87
2023/12/04 11:41:25;;;;;;;12.48;8.52;;;3.10;99.90;;;;;;4964616;28;20524;-87
2023/12/04 11:43:52;;;;;;;11.65;8.10;;;3.20;99.90;;;;;;4983274;28;20448;-88
2023/12/04 11:46:26;;;;;;;10.98;7.80;;;3.30;99.90;;;;;;4973601;28;20042;-86
2023/12/04 11:49:14;;;;;;;11.98;8.68;;;3.30;99.90;;;;;;4977214;28;20450;-88
2023/12/04 11:51:40;;;;;;;24.38;11.40;;;3.20;99.90;;;;;;4980288;28;20033;-88
2023/12/04 11:54:10;;;;;;;12.75;8.63;;;3.10;99.90;;;;;;4978964;28;20038;-88
2023/12/04 11:56:35;;;;;;;11.50;8.02;;;3.10;99.90;;;;;;4984631;28;20061;-88
2023/12/04 11:59:06;;;;;;;12.90;8.40;;;3.10;99.90;;;;;;4983276;28;20049;-88
2023/12/04 12:01:38;;;;;;;10.63;7.75;;;3.00;99.90;;;;;;4977749;28;20062;-88
2023/12/04 12:04:07;;;;;;;13.30;8.63;;;3.10;99.90;;;;;;4979209;28;20111;-88
2023/12/04 12:06:33;;;;;;;13.18;8.90;;;3.00;99.90;;;;;;4972365;28;20057;-88
2023/12/04 12:08:59;;;;;;;11.82;8.68;;;3.10;99.90;;;;;;4973416;28;20349;-88
2023/12/04 12:11:26;;;;;;;11.38;8.23;;;2.90;99.90;;;;;;4975331;28;20371;-89
2023/12/04 12:13:53;;;;;;;12.50;9.07;;;3.10;99.90;;;;;;4978162;28;20393;-89
2023/12/04 12:16:19;;;;;;;11.27;8.05;;;2.80;99.90;;;;;;4989708;28;20049;-87
2023/12/04 12:18:44;;;;;;;10.43;8.02;;;3.00;99.90;;;;;;4992706;28;20050;-89
2023/12/04 12:21:10;;;;;;;10.80;7.68;;;3.10;99.90;;;;;;4997403;28;20038;-88
2023/12/04 12:23:36;;;;;;;11.40;8.52;;;3.10;99.90;;;;;;4997818;28;20516;-88
2023/12/04 12:26:02;;;;;;;13.00;7.65;;;3.00;99.90;;;;;;4965100;28;20041;-88
2023/12/04 12:28:31;;;;;;;10.90;8.32;;;3.00;99.90;;;;;;4993750;28;20045;-88
2023/12/04 12:31:00;;;;;;;11.25;8.13;;;3.10;99.90;;;;;;4979043;28;20034;-88
2023/12/04 12:33:26;;;;;;;12.55;8.38;;;3.10;99.90;;;;;;4974430;28;20363;-89
2023/12/04 12:35:52;;;;;;;11.50;8.00;;;3.10;99.90;;;;;;4960769;28;20172;-89